DEMEC EDVK-EDVK

Flight info

Callsign DEMEC
Flight time 0h 4m
Altitude
Route DCT
Aircraft P28

Departure

Time 2026-05-05 15:01
Airport Kassel Airport (EDVK)

Arrival

Time 2026-05-05 15:06
Airport Kassel Airport (EDVK)
Time Latitude Longitude Altitude Speed Heading
2026-05-05 14:55 51.41724 9.39624 840 ft 0 kts 276°
2026-05-05 14:57 51.41725 9.39619 840 ft 3 kts 331°
2026-05-05 14:58 51.41750 9.39677 839 ft 11 kts 62°
2026-05-05 14:58 51.41816 9.39784 840 ft 15 kts 22°
2026-05-05 14:58 51.41893 9.39732 841 ft 13 kts 282°
2026-05-05 14:58 51.41901 9.39569 843 ft 17 kts 277°
2026-05-05 14:59 51.41915 9.39360 845 ft 20 kts 278°
2026-05-05 14:59 51.41927 9.39137 847 ft 20 kts 276°
2026-05-05 14:59 51.41940 9.38928 845 ft 14 kts 285°
2026-05-05 14:59 51.42008 9.38876 849 ft 5 kts
2026-05-05 15:00 51.42009 9.38877 849 ft 0 kts
2026-05-05 15:00 51.42050 9.38883 848 ft 10 kts
2026-05-05 15:00 51.42092 9.38964 846 ft 16 kts 94°
2026-05-05 15:01 51.42058 9.39533 872 ft 82 kts 88°
2026-05-05 15:01 51.42026 9.40743 1022 ft 127 kts 92°
2026-05-05 15:01 51.41943 9.42327 1210 ft 156 kts 92°
2026-05-05 15:01 51.42261 9.43811 1715 ft 150 kts 21°
2026-05-05 15:02 51.43269 9.43436 2185 ft 151 kts 340°
2026-05-05 15:02 51.44266 9.42693 2403 ft 166 kts 333°
2026-05-05 15:02 51.44881 9.41112 2602 ft 173 kts 289°
2026-05-05 15:02 51.45187 9.39143 2224 ft 199 kts 285°
2026-05-05 15:03 51.45219 9.38741 2119 ft 186 kts 289°
2026-05-05 15:03 51.45512 9.36926 2205 ft 154 kts 287°
2026-05-05 15:03 51.45718 9.35337 2315 ft 138 kts 285°
2026-05-05 15:03 51.45862 9.33865 2391 ft 130 kts 272°
2026-05-05 15:04 51.45405 9.32884 2421 ft 110 kts 201°
2026-05-05 15:04 51.44695 9.32501 2251 ft 105 kts 194°
2026-05-05 15:04 51.44058 9.32628 2221 ft 93 kts 144°
2026-05-05 15:04 51.43475 9.33122 2299 ft 98 kts 148°
2026-05-05 15:05 51.42323 9.34449 1972 ft 101 kts 98°
2026-05-05 15:05 51.42258 9.35538 1326 ft 98 kts 81°
2026-05-05 15:05 51.42221 9.36558 1010 ft 79 kts 91°
2026-05-05 15:06 51.42181 9.37343 904 ft 66 kts 94°
2026-05-05 15:06 51.42145 9.38034 857 ft 58 kts 92°
2026-05-05 15:06 51.42114 9.38572 847 ft 32 kts 97°
2026-05-05 15:06 51.42100 9.38851 847 ft 21 kts 99°
2026-05-05 15:07 51.42022 9.38876 849 ft 13 kts 185°
2026-05-05 15:07 51.41937 9.38923 850 ft 15 kts 98°
2026-05-05 15:07 51.41921 9.39140 845 ft 24 kts 95°
2026-05-05 15:07 51.41895 9.39352 837 ft 13 kts 158°
2026-05-05 15:08 51.41800 9.39381 836 ft 15 kts 127°
2026-05-05 15:08 51.41758 9.39417 836 ft 0 kts 187°